Station info - map view · info · telemetry · weather · raw · status · beacons · messages · bulletins · browse · moving · my account
Callsign, ship name or locator: Clear       
It is possible to search using wildcards (*?) after a prefix. Example: OH*
APRS station KD7ITS-11 - show graphs
Map loading...
Mic-E message: En route
Last status: TT3+EVERETT, WA
Location: 48°52.54' N 118°57.78' W - locator DN08MV40KD - show map - static map
18.8 miles Northwest bearing 327° from Republic, Ferry County, Washington, United States [?]
21.9 miles East bearing 101° from Oroville, Okanogan County, Washington, United States
50.3 miles Southeast bearing 146° from Penticton, British Columbia, Canada
73.4 miles South bearing 161° from Kelowna, British Columbia, Canada
Last position: 2017-06-23 16:21:34 EDT (15h58m ago)
2017-06-23 13:21:34 PDT local time at Republic, United States [?]
Altitude: 3645 ft
Course: 297°
Speed: 20 MPH
Last telemetry: 2013-04-27 23:53:59 EDT (1518d 8h26m ago) – show telemetry
Ch 1: 459, Ch 2: 601, Ch 3: 0, Ch 4: 0, Ch 5: 0
 1     2     3     4     5     6     7     8 
Last path: KD7ITS-11>TX5RUT via BGWHTE*,WIDE1*,SUNPKS*,VE7RKA*,WIDE2*,qAR,VE7RXD-9 (good)
Positions stored: 131732
Packet rate: 82 seconds between packets on average during 4119 seconds.
Other SSIDs: KD7ITS
Stations near current position of KD7ITS-11 - show more
callsign distance last heard - EDT      callsign distance last heard - EDT
IRLP-3377152.0 yards 254°2017-06-24 08:13:39 KD7ITP-13170.2 yards 213°2017-06-24 08:12:48
FW111122.6 miles 290°2017-06-24 08:07:20 BLDYMN24.0 miles 327°2017-06-24 08:03:51
VA7LBC-125.4 miles 296°2017-06-23 21:26:23
Stations which heard KD7ITS-11 directly on radio –
callsign pkts first heard - EDT last heard longest (tx => rx) longest at - EDT
BLDYMN 125 2017-06-03 16:00:41 2017-06-23 15:30:24 DN08EH > DN09IE 61.4 miles 16° 2017-06-15 00:21:07
CLEELM 16 2017-06-14 10:34:04 2017-06-14 21:58:48 CN97JG > CN97ME 12.4 miles 109° 2017-06-14 21:23:36
VE7RNA-10 1 2017-06-14 14:16:18 2017-06-14 14:16:18 CN87UW > CN88BV 98.5 miles 314° 2017-06-14 14:16:18
WW7RA 6 2017-06-14 13:20:58 2017-06-14 20:07:28 CN87UW > CN87ON 35.7 miles 223° 2017-06-14 15:25:58
W7PFR-1 21 2017-06-14 11:33:28 2017-06-14 20:28:50 CN87UW > CN86UU 74.6 miles 180° 2017-06-14 15:28:58
SOMTN 6 2017-06-14 11:56:32 2017-06-14 19:55:43 CN87UW > CN87HH 65.0 miles 231° 2017-06-14 15:28:04
MISION 64 2017-06-10 13:51:54 2017-06-14 23:17:52 DN07HT > CN97TG 61.8 miles 232° 2017-06-10 13:51:54
W7PKT 27 2017-06-14 12:07:23 2017-06-14 20:26:39 CN87VL > CN87VH 10.7 miles 168° 2017-06-14 18:07:21
ERINB 5 2017-06-14 11:25:20 2017-06-14 20:49:01 CN97DL > CN87MQ 58.6 miles 284° 2017-06-14 11:25:20
BGWHTE 39 2017-06-03 10:18:37 2017-06-23 16:21:34 DN08IP > DN09MR 76.0 miles 11° 2017-06-11 23:45:26
SNOPAS 15 2017-06-14 11:04:20 2017-06-14 21:15:05 CN97EK > CN97HK 8.4 miles 90° 2017-06-14 11:19:36
K7NVH-1 14 2017-06-14 15:46:09 2017-06-14 16:59:11 CN88VD > CN87VX 12.6 miles 185° 2017-06-14 16:02:29
SNOVAL 7 2017-06-14 11:23:42 2017-06-14 20:54:23 CN97CM > CN97DL 5.2 miles 119° 2017-06-14 11:31:12
RODDHU 56 2017-06-03 10:33:28 2017-06-23 16:04:02 DN08KQ > DN09QE 41.7 miles 33° 2017-06-15 01:10:52
VE7OJP-1 141 2017-06-03 11:22:00 2017-06-23 15:47:06 DN08JP > DN09DD 39.6 miles 326° 2017-06-23 15:45:32
WAHAT 6 2017-06-10 15:45:20 2017-06-11 11:35:56 DN07IC > DN06FT 25.4 miles 214° 2017-06-10 15:45:20
AF7DX 1 2017-06-14 15:46:13 2017-06-14 15:46:13 CN87VW > CN88LB 41.2 miles 283° 2017-06-14 15:46:13
N7SET 1 2017-06-14 12:50:57 2017-06-14 12:50:57 CN87VQ > CN87US 8.6 miles 320° 2017-06-14 12:50:57
KITTAS 2 2017-06-14 10:31:15 2017-06-14 10:32:41 CN97OE > CN97TA 20.9 miles 130° 2017-06-14 10:32:41
N7ER-10 14 2017-06-14 14:13:11 2017-06-14 16:59:05 CN88VB > CN87TW 10.8 miles 235° 2017-06-14 16:54:09
DYERHL 29 2017-06-10 13:10:06 2017-06-15 00:06:50 DN07HR > DN08DB 28.5 miles 325° 2017-06-10 13:59:31
SOMI 4 2017-06-14 11:55:37 2017-06-14 17:51:18 CN87VL > CN87VN 3.8 miles 337° 2017-06-14 11:55:37
MICEC 9 2017-06-14 11:49:08 2017-06-14 18:35:24 CN87UK > CN87VO 10.1 miles 10° 2017-06-14 18:35:24
WA7DY-10 14 2017-06-14 11:48:03 2017-06-14 17:49:01 CN87VP > CN87VN 5.3 miles 170° 2017-06-14 12:47:59
SNOHO 5 2017-06-14 14:07:34 2017-06-14 17:01:50 CN87VV > CN87XW 7.7 miles 70° 2017-06-14 14:07:34
WA7VC-10 21 2017-06-14 11:17:37 2017-06-14 21:00:36 CN97BM > CN97DL 8.4 miles 114° 2017-06-14 11:31:48
W7NPC-10 11 2017-06-14 11:32:27 2017-06-14 20:51:41 CN97CL > CN87RP 36.8 miles 289° 2017-06-14 20:51:41
W7EEE 2 2017-06-14 12:41:33 2017-06-14 12:44:41 CN87VN > CN87TP 10.6 miles 309° 2017-06-14 12:41:33
KX7DX-10 6 2017-06-14 14:13:29 2017-06-14 17:08:47 CN87UW > CN87RT 13.3 miles 242° 2017-06-14 15:23:04
W7KKX-3 1 2017-06-14 12:51:15 2017-06-14 12:51:15 CN87VQ > CN87VR 4.3 miles 325° 2017-06-14 12:51:15
WA7NWP-6 4 2017-06-14 15:19:52 2017-06-14 17:20:01 CN87UV > CN87WQ 15.0 miles 155° 2017-06-14 15:19:52
W7GTI-10 2 2017-06-14 18:00:03 2017-06-14 18:04:23 CN87VL > CN87TM 7.9 miles 279° 2017-06-14 18:00:03

Only position packets which were originated by the station are shown here. The range statistics show some extra long hops, because some digipeaters do not correctly add themselves to the digipeater path. Please check the raw packets.
About this site
This page shows real-time information collected from the Automatic Position Reporting System Internet network (APRS-IS). APRS is used by amateur (ham) radio operators to transmit real-time position information, weather data, telemetry and messages over the radio. A vehicle equipped with a GPS receiver, a VHF transmitter or HF transceiver and a small computer device called a tracker transmits it's location, speed and course in a small data packet, which is then received by a nearby iGate receiving site which forwards the packet on the Internet. Systems connected to the Internet can send information on the APRS-IS without a radio transmitter, or collect and display information transmitted anywhere in the world.
FAQ · Blog · Discussion group · Linking to aprs.fi · AIS sites · Service status · Database statistics · Advertising on aprs.fi · Technical details · API · Change log · Planned changes · Credits and thanks · Terms Of Service · iPhone/iPad APRS